createdAt,value
2018-08-18T00:00:26.504Z,19.10
2018-08-18T00:02:55.806Z,19.20
2018-08-18T00:05:25.143Z,19.20
2018-08-18T00:07:54.433Z,19.10
2018-08-18T00:10:23.959Z,19.10
2018-08-18T00:12:53.320Z,19.10
2018-08-18T00:15:22.613Z,19.00
2018-08-18T00:17:51.930Z,19.00
2018-08-18T00:20:25.367Z,19.00
2018-08-18T00:22:54.668Z,19.00
2018-08-18T00:25:23.911Z,19.10
2018-08-18T00:27:53.408Z,19.10
2018-08-18T00:30:26.705Z,19.10
2018-08-18T00:32:56.040Z,19.10
2018-08-18T00:35:25.306Z,19.00
2018-08-18T00:37:54.563Z,19.00
2018-08-18T00:40:23.793Z,19.00
2018-08-18T00:42:53.144Z,19.00
2018-08-18T00:45:22.371Z,19.00
2018-08-18T00:47:52.280Z,18.90
2018-08-18T00:50:34.747Z,18.80
2018-08-18T00:53:04.666Z,18.80
2018-08-18T00:55:34.267Z,18.80
2018-08-18T00:58:03.877Z,18.80
2018-08-18T01:00:33.195Z,18.70
2018-08-18T01:03:02.551Z,18.70
2018-08-18T01:05:31.781Z,18.70
2018-08-18T01:08:01.311Z,18.70
2018-08-18T01:10:30.571Z,18.70
2018-08-18T01:12:59.852Z,18.70
2018-08-18T01:15:29.275Z,18.70
2018-08-18T01:17:58.543Z,18.70
2018-08-18T01:20:27.754Z,18.70
2018-08-18T01:23:01.756Z,18.70
2018-08-18T01:25:31.319Z,18.70
2018-08-18T01:28:01.669Z,18.70
2018-08-18T01:30:30.962Z,18.60
2018-08-18T01:33:00.156Z,18.60
2018-08-18T01:35:29.415Z,18.60
2018-08-18T01:37:58.620Z,18.60
2018-08-18T01:40:27.846Z,18.50
2018-08-18T01:42:57.084Z,18.50
2018-08-18T01:45:26.315Z,18.50
2018-08-18T01:47:55.532Z,18.40
2018-08-18T01:50:24.719Z,18.40
2018-08-18T01:52:53.951Z,18.40
2018-08-18T01:55:23.131Z,18.40
2018-08-18T01:57:52.346Z,18.30
2018-08-18T02:00:26.539Z,18.30
2018-08-18T02:02:55.928Z,18.30
2018-08-18T02:05:26.592Z,18.30
2018-08-18T02:07:55.959Z,18.30
2018-08-18T02:10:25.254Z,18.30
2018-08-18T02:13:03.512Z,18.30
2018-08-18T02:15:33.059Z,18.30
2018-08-18T02:18:02.317Z,18.30
2018-08-18T02:20:31.525Z,18.20
2018-08-18T02:23:00.692Z,18.20
2018-08-18T02:25:29.928Z,18.30
2018-08-18T02:27:59.102Z,18.30
2018-08-18T02:30:28.342Z,18.30
2018-08-18T02:32:58.089Z,18.30
2018-08-18T02:35:27.362Z,18.30
2018-08-18T02:37:56.602Z,18.30
2018-08-18T02:40:25.794Z,18.30
2018-08-18T02:42:55.392Z,18.30
2018-08-18T02:45:24.572Z,18.30
2018-08-18T02:48:09.787Z,18.20
2018-08-18T02:50:43.506Z,18.30
2018-08-18T02:53:24.324Z,18.30
2018-08-18T02:55:54.215Z,18.30
2018-08-18T02:58:23.671Z,18.30
2018-08-18T03:00:53.328Z,18.30
2018-08-18T03:03:22.646Z,18.30
2018-08-18T03:05:52.568Z,18.20
2018-08-18T03:08:21.781Z,18.10
2018-08-18T03:10:51.616Z,18.10
2018-08-18T03:13:20.956Z,18.10
2018-08-18T03:15:53.091Z,18.10
2018-08-18T03:18:34.977Z,18.00
2018-08-18T03:21:04.512Z,18.00
2018-08-18T03:23:34.824Z,18.00
2018-08-18T03:26:04.320Z,18.00
2018-08-18T03:28:41.840Z,18.00
2018-08-18T03:31:11.422Z,18.00
2018-08-18T03:33:40.716Z,17.90
2018-08-18T03:36:24.503Z,17.90
2018-08-18T03:38:55.251Z,17.90
2018-08-18T03:41:25.480Z,17.90
2018-08-18T03:43:55.569Z,17.80
2018-08-18T03:46:25.003Z,17.80
2018-08-18T03:48:54.324Z,17.80
2018-08-18T03:51:30.936Z,17.80
2018-08-18T03:54:00.835Z,17.80
2018-08-18T03:56:30.195Z,17.70
2018-08-18T03:58:59.917Z,17.70
2018-08-18T04:01:42.347Z,17.70
2018-08-18T04:04:12.791Z,17.70
2018-08-18T04:06:43.207Z,17.80
2018-08-18T04:09:15.106Z,17.80
2018-08-18T04:11:44.377Z,17.90
2018-08-18T04:14:13.736Z,17.90
2018-08-18T04:16:52.216Z,17.90
2018-08-18T04:19:22.472Z,17.90
2018-08-18T04:21:54.456Z,17.90
2018-08-18T04:24:29.931Z,17.90
2018-08-18T04:26:59.242Z,17.90
2018-08-18T04:29:28.450Z,17.90
2018-08-18T04:31:59.422Z,17.90
2018-08-18T04:34:28.726Z,18.00
2018-08-18T04:36:58.215Z,17.90
2018-08-18T04:39:27.436Z,18.00
2018-08-18T04:41:56.643Z,18.00
2018-08-18T04:44:25.891Z,18.10
2018-08-18T04:46:55.056Z,18.10
2018-08-18T04:49:24.296Z,18.10
2018-08-18T04:51:53.488Z,18.10
2018-08-18T04:54:22.668Z,18.10
2018-08-18T04:56:51.950Z,18.20
2018-08-18T04:59:22.570Z,18.20
2018-08-18T05:01:51.880Z,18.30
2018-08-18T05:04:21.843Z,18.30
2018-08-18T05:06:51.113Z,18.40
2018-08-18T05:09:20.338Z,18.40
2018-08-18T05:11:49.533Z,18.50
2018-08-18T05:14:18.721Z,18.50
2018-08-18T05:16:48.751Z,18.60
2018-08-18T05:19:18.053Z,18.60
2018-08-18T05:21:47.329Z,18.70
2018-08-18T05:24:25.516Z,18.80
2018-08-18T05:26:55.827Z,19.00
2018-08-18T05:29:25.146Z,19.20
2018-08-18T05:31:54.388Z,19.40
2018-08-18T05:34:23.579Z,19.60
2018-08-18T05:36:52.886Z,19.80
2018-08-18T05:39:22.092Z,20.00
2018-08-18T05:41:51.295Z,20.10
2018-08-18T05:44:20.577Z,20.20
2018-08-18T05:46:49.800Z,20.40
2018-08-18T05:49:19.037Z,20.50
2018-08-18T05:51:50.070Z,20.70
2018-08-18T05:54:28.435Z,20.90
2018-08-18T05:56:57.636Z,21.00
2018-08-18T05:59:26.862Z,21.20
2018-08-18T06:01:56.254Z,21.30
2018-08-18T06:04:25.619Z,21.40
2018-08-18T06:06:54.895Z,21.70
2018-08-18T06:09:24.473Z,21.80
2018-08-18T06:11:53.916Z,21.90
2018-08-18T06:14:23.103Z,21.90
2018-08-18T06:16:52.337Z,21.80
2018-08-18T06:19:21.575Z,21.70
2018-08-18T06:21:50.833Z,21.60
2018-08-18T06:24:20.171Z,21.70
2018-08-18T06:26:49.356Z,21.90
2018-08-18T06:29:18.600Z,22.10
2018-08-18T06:31:59.415Z,22.30
2018-08-18T06:34:31.764Z,22.50
2018-08-18T06:37:02.251Z,22.30
2018-08-18T06:39:46.592Z,22.10
2018-08-18T06:42:26.691Z,21.70
2018-08-18T06:44:55.932Z,21.40
2018-08-18T06:47:25.233Z,21.10
2018-08-18T06:49:54.637Z,21.00
2018-08-18T06:52:23.885Z,20.80
2018-08-18T06:54:55.275Z,20.70
2018-08-18T06:57:35.443Z,20.60
2018-08-18T07:00:09.510Z,20.80
2018-08-18T07:02:39.822Z,21.40
2018-08-18T07:05:11.639Z,21.70
2018-08-18T07:07:41.726Z,22.00
2018-08-18T07:10:22.893Z,22.30
2018-08-18T07:12:56.432Z,22.60
2018-08-18T07:15:27.921Z,22.70
2018-08-18T07:17:57.182Z,22.80
2018-08-18T07:20:26.446Z,22.90
2018-08-18T07:22:56.780Z,23.20
2018-08-18T07:25:26.008Z,23.40
2018-08-18T07:28:00.730Z,23.40
2018-08-18T07:30:30.866Z,23.20
2018-08-18T07:33:00.642Z,22.70
2018-08-18T07:35:30.174Z,22.60
2018-08-18T07:37:59.477Z,22.60
2018-08-18T07:40:40.694Z,22.50
2018-08-18T07:43:10.261Z,22.40
2018-08-18T07:45:39.500Z,22.40
2018-08-18T07:48:09.187Z,22.40
2018-08-18T07:50:38.411Z,22.80
2018-08-18T07:53:08.423Z,23.30
2018-08-18T07:55:37.694Z,23.80
2018-08-18T07:58:14.849Z,24.10
2018-08-18T08:00:44.881Z,24.00
2018-08-18T08:03:15.303Z,23.90
2018-08-18T08:05:44.784Z,23.60
2018-08-18T08:08:14.202Z,23.30
2018-08-18T08:10:43.587Z,22.90
2018-08-18T08:13:14.492Z,22.70
2018-08-18T08:15:43.890Z,22.50
2018-08-18T08:18:14.866Z,22.40
2018-08-18T08:20:44.190Z,22.30
2018-08-18T08:23:13.598Z,22.30
2018-08-18T08:25:43.784Z,22.30
2018-08-18T08:28:13.538Z,22.30
2018-08-18T08:30:42.755Z,22.30
2018-08-18T08:33:13.783Z,22.30
2018-08-18T08:35:43.527Z,22.20
2018-08-18T08:38:12.835Z,22.20
2018-08-18T08:40:42.038Z,22.30
2018-08-18T08:43:24.114Z,22.60
2018-08-18T08:45:54.937Z,22.80
2018-08-18T08:48:24.236Z,22.90
2018-08-18T08:50:53.455Z,23.10
2018-08-18T08:53:22.674Z,23.10
2018-08-18T08:55:51.890Z,23.40
2018-08-18T08:58:21.106Z,23.80
2018-08-18T09:00:50.404Z,24.30
2018-08-18T09:03:19.661Z,24.60
2018-08-18T09:05:48.899Z,24.90
2018-08-18T09:08:19.052Z,25.10
2018-08-18T09:10:48.209Z,25.40
2018-08-18T09:13:17.435Z,25.70
2018-08-18T09:15:46.655Z,25.80
2018-08-18T09:18:15.879Z,25.60
2018-08-18T09:20:47.087Z,25.70
2018-08-18T09:23:16.339Z,25.80
2018-08-18T09:25:45.647Z,25.90
2018-08-18T09:28:14.868Z,25.70
2018-08-18T09:30:44.082Z,25.40
2018-08-18T09:33:13.309Z,25.30
2018-08-18T09:35:54.635Z,25.00
2018-08-18T09:38:23.827Z,24.70
2018-08-18T09:40:53.119Z,24.60
2018-08-18T09:43:26.094Z,24.50
2018-08-18T09:45:56.591Z,24.40
2018-08-18T09:48:26.869Z,24.20
2018-08-18T09:50:57.478Z,24.10
2018-08-18T09:53:27.885Z,23.90
2018-08-18T09:55:58.186Z,23.80
2018-08-18T09:58:27.431Z,23.70
2018-08-18T10:00:57.156Z,23.60
2018-08-18T10:03:26.562Z,23.50
2018-08-18T10:05:55.784Z,23.50
2018-08-18T10:08:25.226Z,23.30
2018-08-18T10:10:54.458Z,23.30
2018-08-18T10:13:24.047Z,23.30
2018-08-18T10:15:53.372Z,23.20
2018-08-18T10:18:22.628Z,23.20
2018-08-18T10:20:52.475Z,23.10
2018-08-18T10:23:21.707Z,23.10
2018-08-18T10:25:50.975Z,23.10
2018-08-18T10:28:20.183Z,23.10
2018-08-18T10:30:49.443Z,23.10
2018-08-18T10:33:18.808Z,23.10
2018-08-18T10:35:48.070Z,23.20
2018-08-18T10:38:17.855Z,23.30
2018-08-18T10:40:47.040Z,23.30
2018-08-18T10:43:16.263Z,23.40
2018-08-18T10:45:46.307Z,23.40
2018-08-18T10:48:15.520Z,23.60
2018-08-18T10:51:58.251Z,23.90
2018-08-18T10:54:27.574Z,24.10
2018-08-18T10:56:56.739Z,24.20
2018-08-18T10:59:36.766Z,24.00
2018-08-18T11:02:08.118Z,24.10
2018-08-18T11:04:37.968Z,24.10
2018-08-18T11:07:07.194Z,24.00
2018-08-18T11:09:36.414Z,24.00
2018-08-18T11:12:05.766Z,24.00
2018-08-18T11:14:35.015Z,24.10
2018-08-18T11:17:04.227Z,24.10
2018-08-18T11:19:33.469Z,24.30
2018-08-18T11:22:18.446Z,24.40
2018-08-18T11:24:47.772Z,24.60
2018-08-18T11:27:17.087Z,24.80
2018-08-18T11:29:46.521Z,24.80
2018-08-18T11:32:15.906Z,25.00
2018-08-18T11:34:45.287Z,25.00
2018-08-18T11:37:14.536Z,25.10
2018-08-18T11:39:43.850Z,25.00
2018-08-18T11:42:13.144Z,24.90
2018-08-18T11:44:42.318Z,24.70
2018-08-18T11:47:11.557Z,24.60
2018-08-18T11:49:40.786Z,24.70
2018-08-18T11:52:10.045Z,24.80
2018-08-18T11:54:39.200Z,24.80
2018-08-18T11:57:08.710Z,24.90
2018-08-18T11:59:37.895Z,25.00
2018-08-18T12:02:07.296Z,25.00
2018-08-18T12:04:36.590Z,25.00
2018-08-18T12:07:05.767Z,25.00
2018-08-18T12:09:35.159Z,24.90
2018-08-18T12:12:04.475Z,24.90
2018-08-18T12:14:33.688Z,24.90
2018-08-18T12:17:03.054Z,24.90
2018-08-18T12:19:32.263Z,25.00
2018-08-18T12:22:01.456Z,25.00
2018-08-18T12:24:30.704Z,25.00
2018-08-18T12:27:10.359Z,25.00
2018-08-18T12:29:39.689Z,25.10
2018-08-18T12:32:25.402Z,25.30
2018-08-18T12:34:55.657Z,25.30
2018-08-18T12:37:27.420Z,25.30
2018-08-18T12:39:58.426Z,25.30
2018-08-18T12:42:29.003Z,25.40
2018-08-18T12:44:58.338Z,25.40
2018-08-18T12:47:27.582Z,25.40
2018-08-18T12:49:56.848Z,25.40
2018-08-18T12:52:27.280Z,25.50
2018-08-18T12:54:56.506Z,25.50
2018-08-18T12:57:36.679Z,25.50
2018-08-18T13:00:06.128Z,25.50
2018-08-18T13:02:43.690Z,25.60
2018-08-18T13:05:13.007Z,25.80
2018-08-18T13:07:43.387Z,25.80
2018-08-18T13:10:17.555Z,25.80
2018-08-18T13:12:46.831Z,25.70
2018-08-18T13:15:17.796Z,25.50
2018-08-18T13:17:47.216Z,25.50
2018-08-18T13:20:22.987Z,25.50
2018-08-18T13:22:52.410Z,25.50
2018-08-18T13:25:22.073Z,25.50
2018-08-18T13:27:54.757Z,25.50
2018-08-18T13:30:25.063Z,25.60
2018-08-18T13:32:57.106Z,25.50
2018-08-18T13:35:26.984Z,25.60
2018-08-18T13:37:56.297Z,25.60
2018-08-18T13:40:27.306Z,25.70
2018-08-18T13:42:56.602Z,25.70
2018-08-18T13:45:40.270Z,25.60
2018-08-18T13:48:10.777Z,25.70
2018-08-18T13:50:40.335Z,25.70
2018-08-18T13:53:11.018Z,25.60
2018-08-18T13:55:41.578Z,25.60
2018-08-18T13:58:12.698Z,25.70
2018-08-18T14:00:41.979Z,25.70
2018-08-18T14:03:30.631Z,25.60
2018-08-18T14:05:59.931Z,25.60
2018-08-18T14:08:29.142Z,25.70
2018-08-18T14:10:58.368Z,25.80
2018-08-18T14:13:28.609Z,25.80
2018-08-18T14:15:58.930Z,25.80
2018-08-18T14:18:29.468Z,25.80
2018-08-18T14:21:04.698Z,25.80
2018-08-18T14:23:34.189Z,25.90
2018-08-18T14:26:04.833Z,25.90
2018-08-18T14:28:34.092Z,26.00
2018-08-18T14:31:03.276Z,25.90
2018-08-18T14:33:33.010Z,25.90
2018-08-18T14:36:07.571Z,25.90
2018-08-18T14:38:37.295Z,25.80
2018-08-18T14:41:07.104Z,25.80
2018-08-18T14:43:38.730Z,25.70
2018-08-18T14:46:10.712Z,25.70
2018-08-18T14:48:39.996Z,25.80
2018-08-18T14:51:10.031Z,25.90
2018-08-18T14:53:43.694Z,26.00
2018-08-18T14:56:13.006Z,26.10
2018-08-18T14:58:44.105Z,26.10
2018-08-18T15:01:15.140Z,26.20
2018-08-18T15:03:44.445Z,26.10
2018-08-18T15:06:14.301Z,26.20
2018-08-18T15:08:43.838Z,26.10
2018-08-18T15:11:13.169Z,26.10
2018-08-18T15:13:43.292Z,26.10
2018-08-18T15:16:12.777Z,26.10
2018-08-18T15:18:41.972Z,26.10
2018-08-18T15:21:11.434Z,26.40
2018-08-18T15:23:40.482Z,26.50
2018-08-18T15:26:09.695Z,26.40
2018-08-18T15:28:38.892Z,26.30
2018-08-18T15:31:08.258Z,26.20
2018-08-18T15:33:37.443Z,26.10
2018-08-18T15:36:16.372Z,26.10
2018-08-18T15:38:46.633Z,26.10
2018-08-18T15:41:16.094Z,26.00
2018-08-18T15:43:45.432Z,26.00
2018-08-18T15:46:14.710Z,26.10
2018-08-18T15:48:43.973Z,26.10
2018-08-18T15:51:13.159Z,26.00
2018-08-18T15:53:54.054Z,26.00
2018-08-18T15:56:24.054Z,26.00
2018-08-18T15:58:54.219Z,26.00
2018-08-18T16:01:27.166Z,26.00
2018-08-18T16:03:57.803Z,26.10
2018-08-18T16:06:27.059Z,26.10
2018-08-18T16:08:56.435Z,26.00
2018-08-18T16:11:25.819Z,26.00
2018-08-18T16:13:55.045Z,26.00
2018-08-18T16:16:24.304Z,25.90
2018-08-18T16:19:03.228Z,25.90
2018-08-18T16:21:34.980Z,25.80
2018-08-18T16:24:04.347Z,25.70
2018-08-18T16:26:33.887Z,25.80
2018-08-18T16:29:03.079Z,25.90
2018-08-18T16:31:32.357Z,26.00
2018-08-18T16:34:01.607Z,25.90
2018-08-18T16:36:36.049Z,25.90
2018-08-18T16:39:06.481Z,25.90
2018-08-18T16:41:35.777Z,25.90
2018-08-18T16:44:05.025Z,25.90
2018-08-18T16:46:34.432Z,25.90
2018-08-18T16:49:03.760Z,25.90
2018-08-18T16:51:32.978Z,25.80
2018-08-18T16:54:19.684Z,25.90
2018-08-18T16:56:49.136Z,25.90
2018-08-18T16:59:18.392Z,25.80
2018-08-18T17:01:47.651Z,25.80
2018-08-18T17:04:22.915Z,25.80
2018-08-18T17:06:52.313Z,25.70
2018-08-18T17:09:32.689Z,25.60
2018-08-18T17:12:14.851Z,25.50
2018-08-18T17:14:44.105Z,25.40
2018-08-18T17:17:13.501Z,25.30
2018-08-18T17:19:42.660Z,25.30
2018-08-18T17:22:13.014Z,25.20
2018-08-18T17:24:42.676Z,25.20
2018-08-18T17:27:11.946Z,25.10
2018-08-18T17:29:42.658Z,25.10
2018-08-18T17:32:12.000Z,25.10
2018-08-18T17:34:41.224Z,25.00
2018-08-18T17:37:10.443Z,25.10
2018-08-18T17:39:39.742Z,25.00
2018-08-18T17:42:08.966Z,25.00
2018-08-18T17:44:38.382Z,24.90
2018-08-18T17:47:09.146Z,24.90
2018-08-18T17:49:58.236Z,24.80
2018-08-18T17:52:28.356Z,24.60
2018-08-18T17:55:11.506Z,24.50
2018-08-18T17:57:41.463Z,24.40
2018-08-18T18:00:16.556Z,24.30
2018-08-18T18:02:51.775Z,24.10
2018-08-18T18:05:23.078Z,23.90
2018-08-18T18:07:58.060Z,23.80
2018-08-18T18:10:29.956Z,23.60
2018-08-18T18:12:59.770Z,23.50
2018-08-18T18:15:38.928Z,23.40
2018-08-18T18:18:12.402Z,23.30
2018-08-18T18:20:43.491Z,23.20
2018-08-18T18:23:13.817Z,23.10
2018-08-18T18:25:44.141Z,22.90
2018-08-18T18:28:13.775Z,22.80
2018-08-18T18:30:43.100Z,22.60
2018-08-18T18:33:12.811Z,22.50
2018-08-18T18:35:43.327Z,22.40
2018-08-18T18:38:12.672Z,22.30
2018-08-18T18:40:43.327Z,22.20
2018-08-18T18:43:13.903Z,22.10
2018-08-18T18:45:44.473Z,22.00
2018-08-18T18:48:15.656Z,21.80
2018-08-18T18:50:49.094Z,21.70
2018-08-18T18:53:18.436Z,21.60
2018-08-18T18:55:52.743Z,21.60
2018-08-18T18:58:23.214Z,21.50
2018-08-18T19:00:59.032Z,21.40
2018-08-18T19:03:29.063Z,21.30
2018-08-18T19:05:59.434Z,21.10
2018-08-18T19:08:31.251Z,21.00
2018-08-18T19:11:04.019Z,21.00
2018-08-18T19:13:33.990Z,20.90
2018-08-18T19:16:03.608Z,20.80
2018-08-18T19:18:33.752Z,20.70
2018-08-18T19:21:03.347Z,20.60
2018-08-18T19:23:33.394Z,20.60
2018-08-18T19:26:02.687Z,20.50
2018-08-18T19:28:32.385Z,20.40
2018-08-18T19:31:04.268Z,20.40
2018-08-18T19:33:34.363Z,20.30
2018-08-18T19:36:03.727Z,20.20
2018-08-18T19:38:32.951Z,20.10
2018-08-18T19:41:07.086Z,20.10
2018-08-18T19:43:37.346Z,20.10
2018-08-18T19:46:07.365Z,20.00
2018-08-18T19:48:36.736Z,20.00
2018-08-18T19:51:07.151Z,19.90
2018-08-18T19:53:36.633Z,19.90
2018-08-18T19:56:10.606Z,19.90
2018-08-18T19:58:40.650Z,19.80
2018-08-18T20:01:09.923Z,19.80
2018-08-18T20:03:39.782Z,19.80
2018-08-18T20:06:14.678Z,19.70
2018-08-18T20:08:43.993Z,19.70
2018-08-18T20:11:13.297Z,19.60
2018-08-18T20:13:43.162Z,19.60
2018-08-18T20:16:13.451Z,19.50
2018-08-18T20:18:43.596Z,19.50
2018-08-18T20:21:13.288Z,19.50
2018-08-18T20:23:42.839Z,19.40
2018-08-18T20:26:13.367Z,19.40
2018-08-18T20:28:43.720Z,19.40
2018-08-18T20:31:13.619Z,19.30
2018-08-18T20:33:44.313Z,19.30
2018-08-18T20:36:15.031Z,19.20
2018-08-18T20:38:46.263Z,19.20
2018-08-18T20:41:15.935Z,19.10
2018-08-18T20:43:48.857Z,19.10
2018-08-18T20:46:18.901Z,19.00
2018-08-18T20:48:49.269Z,19.00
2018-08-18T20:51:23.039Z,19.00
2018-08-18T20:53:52.903Z,18.90
2018-08-18T20:56:22.616Z,18.90
2018-08-18T20:58:52.272Z,18.80
2018-08-18T21:01:22.867Z,18.80
2018-08-18T21:03:53.049Z,18.80
2018-08-18T21:06:22.589Z,18.70
2018-08-18T21:08:52.506Z,18.70
2018-08-18T21:11:22.431Z,18.70
2018-08-18T21:13:52.729Z,18.70
2018-08-18T21:16:24.386Z,18.70
2018-08-18T21:18:54.122Z,18.70
2018-08-18T21:21:28.522Z,18.70
2018-08-18T21:23:58.359Z,18.70
2018-08-18T21:26:28.384Z,18.60
2018-08-18T21:28:59.251Z,18.70
2018-08-18T21:31:34.109Z,18.70
2018-08-18T21:34:05.597Z,18.60
2018-08-18T21:36:35.662Z,18.60
2018-08-18T21:39:09.338Z,18.60
2018-08-18T21:41:41.856Z,18.60
2018-08-18T21:44:13.722Z,18.60
2018-08-18T21:46:43.622Z,18.50
2018-08-18T21:49:14.227Z,18.50
2018-08-18T21:51:44.723Z,18.40
2018-08-18T21:54:14.621Z,18.40
2018-08-18T21:56:44.304Z,18.30
2018-08-18T21:59:14.991Z,18.30
2018-08-18T22:01:44.898Z,18.20
2018-08-18T22:04:14.771Z,18.20
2018-08-18T22:06:45.727Z,18.20
2018-08-18T22:09:22.783Z,18.10
2018-08-18T22:11:53.276Z,18.10
2018-08-18T22:14:23.097Z,18.10
2018-08-18T22:16:58.156Z,18.00
2018-08-18T22:19:29.368Z,18.00
2018-08-18T22:21:59.590Z,17.90
2018-08-18T22:24:29.345Z,17.90
2018-08-18T22:26:59.031Z,17.90
2018-08-18T22:29:29.106Z,17.90
2018-08-18T22:31:58.984Z,17.90
2018-08-18T22:34:28.639Z,17.90
2018-08-18T22:37:03.958Z,17.90
2018-08-18T22:39:33.535Z,17.80
2018-08-18T22:42:03.213Z,17.80
2018-08-18T22:44:33.152Z,17.80
2018-08-18T22:47:04.661Z,17.80
2018-08-18T22:49:34.444Z,17.80
2018-08-18T22:52:04.617Z,17.80
2018-08-18T22:54:34.377Z,17.80
2018-08-18T22:57:06.039Z,17.80
2018-08-18T22:59:35.898Z,17.80
2018-08-18T23:02:06.562Z,17.80
2018-08-18T23:04:38.012Z,17.70
2018-08-18T23:07:10.845Z,17.70
2018-08-18T23:09:40.520Z,17.70
2018-08-18T23:12:10.338Z,17.70
2018-08-18T23:14:40.598Z,17.60
2018-08-18T23:17:11.131Z,17.60
2018-08-18T23:19:40.360Z,17.60
2018-08-18T23:22:19.111Z,17.60
2018-08-18T23:24:49.236Z,17.60
2018-08-18T23:27:18.499Z,17.60
2018-08-18T23:29:48.679Z,17.60
2018-08-18T23:32:21.999Z,17.60
2018-08-18T23:34:54.767Z,17.60
2018-08-18T23:37:24.077Z,17.60
2018-08-18T23:39:54.384Z,17.60
2018-08-18T23:42:24.893Z,17.70
2018-08-18T23:44:54.182Z,17.70
2018-08-18T23:47:23.375Z,17.70
2018-08-18T23:49:52.580Z,17.70
2018-08-18T23:52:21.780Z,17.70
2018-08-18T23:54:51.001Z,17.70
2018-08-18T23:57:20.256Z,17.70
2018-08-18T23:59:50.511Z,17.70
